sensor_id;sensor_type;location;lat;lon;timestamp;noise_LAeq;noise_LA_min;noise_LA_max;noise_LA01;noise_LA95
46393;Laerm;32099;53.588;10.176;2023-06-14T00:01:17;36.55;33.25;43.23;;
46393;Laerm;32099;53.588;10.176;2023-06-14T00:03:45;37.06;33.22;42.39;;
46393;Laerm;32099;53.588;10.176;2023-06-14T00:06:10;36.44;32.65;42.14;;
46393;Laerm;32099;53.588;10.176;2023-06-14T00:08:36;36.64;33.33;44.51;;
46393;Laerm;32099;53.588;10.176;2023-06-14T00:11:01;35.69;32.31;41.59;;
46393;Laerm;32099;53.588;10.176;2023-06-14T00:13:27;35.58;33.08;43.96;;
46393;Laerm;32099;53.588;10.176;2023-06-14T00:15:52;36.31;33.27;45.63;;
46393;Laerm;32099;53.588;10.176;2023-06-14T00:18:20;38.16;34.87;43.73;;
46393;Laerm;32099;53.588;10.176;2023-06-14T00:20:49;38.75;34.79;52.91;;
46393;Laerm;32099;53.588;10.176;2023-06-14T00:23:15;37.37;34.18;42.61;;
46393;Laerm;32099;53.588;10.176;2023-06-14T00:25:40;37.23;33.98;45.61;;
46393;Laerm;32099;53.588;10.176;2023-06-14T00:28:05;35.05;32.06;40.98;;
46393;Laerm;32099;53.588;10.176;2023-06-14T00:30:30;35.81;33.13;39.70;;
46393;Laerm;32099;53.588;10.176;2023-06-14T00:32:56;37.21;33.10;47.31;;
46393;Laerm;32099;53.588;10.176;2023-06-14T00:35:22;37.29;33.94;43.75;;
46393;Laerm;32099;53.588;10.176;2023-06-14T00:37:47;37.52;34.01;45.06;;
46393;Laerm;32099;53.588;10.176;2023-06-14T00:40:13;38.56;35.10;46.38;;
46393;Laerm;32099;53.588;10.176;2023-06-14T00:42:38;37.01;33.99;44.56;;
46393;Laerm;32099;53.588;10.176;2023-06-14T00:45:04;36.76;32.65;44.83;;
46393;Laerm;32099;53.588;10.176;2023-06-14T00:47:29;36.64;32.74;45.12;;
46393;Laerm;32099;53.588;10.176;2023-06-14T00:49:55;37.79;33.24;46.22;;
46393;Laerm;32099;53.588;10.176;2023-06-14T00:52:23;38.27;34.50;48.16;;
46393;Laerm;32099;53.588;10.176;2023-06-14T00:54:51;37.44;32.74;45.81;;
46393;Laerm;32099;53.588;10.176;2023-06-14T00:57:17;37.27;33.40;44.25;;
46393;Laerm;32099;53.588;10.176;2023-06-14T00:59:43;36.27;33.12;45.00;;
46393;Laerm;32099;53.588;10.176;2023-06-14T01:02:09;37.25;33.59;43.23;;
46393;Laerm;32099;53.588;10.176;2023-06-14T01:04:34;37.62;33.57;41.77;;
46393;Laerm;32099;53.588;10.176;2023-06-14T01:07:36;36.56;33.43;44.07;;
46393;Laerm;32099;53.588;10.176;2023-06-14T01:15:35;37.89;34.10;45.20;;
46393;Laerm;32099;53.588;10.176;2023-06-14T01:18:02;39.89;35.27;47.15;;
46393;Laerm;32099;53.588;10.176;2023-06-14T01:20:32;39.23;34.96;46.64;;
46393;Laerm;32099;53.588;10.176;2023-06-14T01:22:58;39.34;35.08;49.05;;
46393;Laerm;32099;53.588;10.176;2023-06-14T01:25:24;39.25;35.25;46.04;;
46393;Laerm;32099;53.588;10.176;2023-06-14T01:27:55;39.47;35.49;46.16;;
46393;Laerm;32099;53.588;10.176;2023-06-14T01:30:23;39.55;36.08;47.90;;
46393;Laerm;32099;53.588;10.176;2023-06-14T01:32:51;39.54;35.74;45.85;;
46393;Laerm;32099;53.588;10.176;2023-06-14T01:35:17;41.60;36.02;53.21;;
46393;Laerm;32099;53.588;10.176;2023-06-14T01:37:43;43.54;39.04;50.71;;
46393;Laerm;32099;53.588;10.176;2023-06-14T01:40:10;47.21;40.37;66.47;;
46393;Laerm;32099;53.588;10.176;2023-06-14T01:42:37;47.78;41.59;62.59;;
46393;Laerm;32099;53.588;10.176;2023-06-14T01:45:05;48.19;41.47;61.18;;
46393;Laerm;32099;53.588;10.176;2023-06-14T01:47:31;47.87;40.54;61.36;;
46393;Laerm;32099;53.588;10.176;2023-06-14T01:49:57;48.05;39.24;62.56;;
46393;Laerm;32099;53.588;10.176;2023-06-14T01:52:23;47.12;37.42;58.81;;
46393;Laerm;32099;53.588;10.176;2023-06-14T01:54:50;47.88;37.62;63.02;;
46393;Laerm;32099;53.588;10.176;2023-06-14T01:57:15;47.68;38.15;61.22;;
46393;Laerm;32099;53.588;10.176;2023-06-14T01:59:41;47.22;37.67;61.27;;
46393;Laerm;32099;53.588;10.176;2023-06-14T02:02:06;47.12;37.63;59.78;;
46393;Laerm;32099;53.588;10.176;2023-06-14T02:04:32;52.45;37.10;72.70;;
46393;Laerm;32099;53.588;10.176;2023-06-14T02:06:58;46.45;38.25;62.72;;
46393;Laerm;32099;53.588;10.176;2023-06-14T02:09:23;46.50;38.58;68.46;;
46393;Laerm;32099;53.588;10.176;2023-06-14T02:11:49;57.95;40.81;75.57;;
46393;Laerm;32099;53.588;10.176;2023-06-14T02:14:14;47.56;39.17;69.56;;
46393;Laerm;32099;53.588;10.176;2023-06-14T02:16:41;45.57;38.80;59.59;;
46393;Laerm;32099;53.588;10.176;2023-06-14T02:19:17;53.08;40.28;74.03;;
46393;Laerm;32099;53.588;10.176;2023-06-14T02:21:44;48.08;41.04;64.75;;
46393;Laerm;32099;53.588;10.176;2023-06-14T02:24:09;46.27;40.80;60.59;;
46393;Laerm;32099;53.588;10.176;2023-06-14T02:26:35;47.18;41.14;63.52;;
46393;Laerm;32099;53.588;10.176;2023-06-14T02:29:00;44.13;38.52;52.59;;
46393;Laerm;32099;53.588;10.176;2023-06-14T02:31:26;43.11;39.12;52.63;;
46393;Laerm;32099;53.588;10.176;2023-06-14T02:33:52;42.82;38.55;52.37;;
46393;Laerm;32099;53.588;10.176;2023-06-14T02:36:17;45.25;39.06;57.15;;
46393;Laerm;32099;53.588;10.176;2023-06-14T02:38:42;45.40;39.65;58.32;;
46393;Laerm;32099;53.588;10.176;2023-06-14T02:41:08;44.28;39.96;52.93;;
46393;Laerm;32099;53.588;10.176;2023-06-14T02:43:33;44.52;39.67;57.99;;
46393;Laerm;32099;53.588;10.176;2023-06-14T02:45:58;45.33;40.98;61.46;;
46393;Laerm;32099;53.588;10.176;2023-06-14T02:48:24;44.10;40.14;53.30;;
46393;Laerm;32099;53.588;10.176;2023-06-14T02:50:49;43.05;39.61;48.18;;
46393;Laerm;32099;53.588;10.176;2023-06-14T02:53:15;43.17;39.72;54.91;;
46393;Laerm;32099;53.588;10.176;2023-06-14T02:55:40;42.68;39.12;60.54;;
46393;Laerm;32099;53.588;10.176;2023-06-14T02:58:06;43.96;40.03;57.48;;
46393;Laerm;32099;53.588;10.176;2023-06-14T03:00:31;53.22;39.61;74.79;;
46393;Laerm;32099;53.588;10.176;2023-06-14T03:02:56;43.05;39.32;52.96;;
46393;Laerm;32099;53.588;10.176;2023-06-14T03:05:22;43.82;40.08;49.74;;
46393;Laerm;32099;53.588;10.176;2023-06-14T03:07:48;43.93;40.68;52.86;;
46393;Laerm;32099;53.588;10.176;2023-06-14T03:10:13;44.27;40.41;51.24;;
46393;Laerm;32099;53.588;10.176;2023-06-14T03:12:39;43.43;39.68;50.06;;
46393;Laerm;32099;53.588;10.176;2023-06-14T03:15:05;45.75;39.95;61.83;;
46393;Laerm;32099;53.588;10.176;2023-06-14T03:17:30;44.41;40.57;53.96;;
46393;Laerm;32099;53.588;10.176;2023-06-14T03:19:59;44.81;40.09;59.34;;
46393;Laerm;32099;53.588;10.176;2023-06-14T03:22:25;48.03;40.70;66.56;;
46393;Laerm;32099;53.588;10.176;2023-06-14T03:24:51;47.57;40.91;67.56;;
46393;Laerm;32099;53.588;10.176;2023-06-14T03:27:17;44.36;39.39;59.93;;
46393;Laerm;32099;53.588;10.176;2023-06-14T03:29:43;44.91;40.45;60.84;;
46393;Laerm;32099;53.588;10.176;2023-06-14T03:32:09;47.97;40.92;68.40;;
46393;Laerm;32099;53.588;10.176;2023-06-14T03:34:34;57.61;39.39;78.78;;
46393;Laerm;32099;53.588;10.176;2023-06-14T03:36:59;46.61;41.16;59.49;;
46393;Laerm;32099;53.588;10.176;2023-06-14T03:39:25;49.43;42.30;68.86;;
46393;Laerm;32099;53.588;10.176;2023-06-14T03:41:50;49.38;41.48;67.78;;
46393;Laerm;32099;53.588;10.176;2023-06-14T03:44:17;47.68;41.91;62.40;;
46393;Laerm;32099;53.588;10.176;2023-06-14T03:46:43;53.42;42.47;69.18;;
46393;Laerm;32099;53.588;10.176;2023-06-14T03:49:08;48.02;41.32;64.00;;
46393;Laerm;32099;53.588;10.176;2023-06-14T03:51:34;45.68;41.72;52.09;;
46393;Laerm;32099;53.588;10.176;2023-06-14T03:54:00;46.19;42.04;55.24;;
46393;Laerm;32099;53.588;10.176;2023-06-14T03:56:25;45.51;41.77;57.13;;
46393;Laerm;32099;53.588;10.176;2023-06-14T03:58:52;45.66;41.96;59.05;;
46393;Laerm;32099;53.588;10.176;2023-06-14T04:01:17;48.03;41.68;66.34;;
46393;Laerm;32099;53.588;10.176;2023-06-14T04:03:42;53.94;42.70;72.98;;
46393;Laerm;32099;53.588;10.176;2023-06-14T04:06:07;48.66;43.02;66.37;;
46393;Laerm;32099;53.588;10.176;2023-06-14T04:08:33;48.63;43.54;65.75;;
46393;Laerm;32099;53.588;10.176;2023-06-14T04:10:58;49.59;43.62;66.40;;
46393;Laerm;32099;53.588;10.176;2023-06-14T04:13:23;48.66;43.66;63.08;;
46393;Laerm;32099;53.588;10.176;2023-06-14T04:15:48;53.17;43.86;72.74;;
46393;Laerm;32099;53.588;10.176;2023-06-14T04:18:14;47.27;43.78;51.68;;
46393;Laerm;32099;53.588;10.176;2023-06-14T04:20:39;47.46;43.89;54.13;;
46393;Laerm;32099;53.588;10.176;2023-06-14T04:23:16;52.28;43.82;72.44;;
46393;Laerm;32099;53.588;10.176;2023-06-14T04:25:44;48.02;44.57;57.31;;
46393;Laerm;32099;53.588;10.176;2023-06-14T04:28:14;50.15;44.70;67.04;;
46393;Laerm;32099;53.588;10.176;2023-06-14T04:30:43;47.72;43.89;54.10;;
46393;Laerm;32099;53.588;10.176;2023-06-14T04:33:09;53.52;43.57;68.77;;
46393;Laerm;32099;53.588;10.176;2023-06-14T04:35:36;55.16;43.44;72.96;;
46393;Laerm;32099;53.588;10.176;2023-06-14T04:38:03;50.94;43.78;76.46;;
46393;Laerm;32099;53.588;10.176;2023-06-14T04:40:30;50.88;44.09;64.25;;
46393;Laerm;32099;53.588;10.176;2023-06-14T04:42:55;54.28;44.46;70.28;;
46393;Laerm;32099;53.588;10.176;2023-06-14T04:45:22;47.56;43.60;54.61;;
46393;Laerm;32099;53.588;10.176;2023-06-14T04:47:47;48.60;44.75;57.71;;
46393;Laerm;32099;53.588;10.176;2023-06-14T04:50:13;52.08;44.75;68.79;;
46393;Laerm;32099;53.588;10.176;2023-06-14T04:52:38;50.47;44.26;61.30;;
46393;Laerm;32099;53.588;10.176;2023-06-14T04:55:04;53.28;43.87;70.30;;
46393;Laerm;32099;53.588;10.176;2023-06-14T04:57:31;59.09;44.33;80.05;;
46393;Laerm;32099;53.588;10.176;2023-06-14T04:59:56;61.86;43.29;80.51;;
46393;Laerm;32099;53.588;10.176;2023-06-14T05:02:23;53.20;42.10;71.99;;
46393;Laerm;32099;53.588;10.176;2023-06-14T05:04:49;53.41;41.37;66.99;;
46393;Laerm;32099;53.588;10.176;2023-06-14T05:07:16;52.16;40.43;70.68;;
46393;Laerm;32099;53.588;10.176;2023-06-14T05:09:41;48.23;39.20;65.93;;
46393;Laerm;32099;53.588;10.176;2023-06-14T05:12:07;45.79;39.88;69.03;;
46393;Laerm;32099;53.588;10.176;2023-06-14T05:14:36;52.88;38.41;74.40;;
46393;Laerm;32099;53.588;10.176;2023-06-14T05:17:02;50.32;38.75;66.21;;
46393;Laerm;32099;53.588;10.176;2023-06-14T05:19:30;49.00;39.28;69.60;;
46393;Laerm;32099;53.588;10.176;2023-06-14T05:21:55;52.87;39.41;71.63;;
46393;Laerm;32099;53.588;10.176;2023-06-14T05:24:20;44.93;38.17;64.22;;
46393;Laerm;32099;53.588;10.176;2023-06-14T05:26:46;57.89;37.60;72.85;;
46393;Laerm;32099;53.588;10.176;2023-06-14T05:29:12;52.65;37.91;69.80;;
46393;Laerm;32099;53.588;10.176;2023-06-14T05:31:37;57.54;38.36;76.63;;
46393;Laerm;32099;53.588;10.176;2023-06-14T05:34:03;54.72;37.53;72.91;;
46393;Laerm;32099;53.588;10.176;2023-06-14T05:36:28;57.56;37.62;72.97;;
46393;Laerm;32099;53.588;10.176;2023-06-14T05:38:54;56.42;36.43;76.66;;
46393;Laerm;32099;53.588;10.176;2023-06-14T05:41:28;48.17;36.88;66.06;;
46393;Laerm;32099;53.588;10.176;2023-06-14T05:43:54;53.01;36.30;71.46;;
46393;Laerm;32099;53.588;10.176;2023-06-14T05:46:20;52.34;37.48;69.15;;
46393;Laerm;32099;53.588;10.176;2023-06-14T05:48:48;53.69;35.80;70.66;;
46393;Laerm;32099;53.588;10.176;2023-06-14T05:51:13;54.65;36.58;72.10;;
46393;Laerm;32099;53.588;10.176;2023-06-14T05:53:39;54.51;35.50;71.65;;
46393;Laerm;32099;53.588;10.176;2023-06-14T05:56:05;47.51;34.89;74.31;;
46393;Laerm;32099;53.588;10.176;2023-06-14T05:58:30;55.69;36.34;77.07;;
46393;Laerm;32099;53.588;10.176;2023-06-14T06:00:55;49.90;33.40;66.38;;
46393;Laerm;32099;53.588;10.176;2023-06-14T06:03:20;50.66;33.07;68.07;;
46393;Laerm;32099;53.588;10.176;2023-06-14T06:05:46;46.21;32.33;65.81;;
46393;Laerm;32099;53.588;10.176;2023-06-14T06:08:11;47.78;33.23;65.08;;
46393;Laerm;32099;53.588;10.176;2023-06-14T06:10:36;50.28;32.77;64.99;;
46393;Laerm;32099;53.588;10.176;2023-06-14T06:13:02;49.33;32.11;67.77;;
46393;Laerm;32099;53.588;10.176;2023-06-14T06:15:27;53.84;33.80;74.93;;
46393;Laerm;32099;53.588;10.176;2023-06-14T06:17:52;47.90;33.66;63.98;;
46393;Laerm;32099;53.588;10.176;2023-06-14T06:20:17;45.45;32.27;61.49;;
46393;Laerm;32099;53.588;10.176;2023-06-14T06:22:43;41.81;32.98;56.50;;
46393;Laerm;32099;53.588;10.176;2023-06-14T06:25:08;70.32;45.37;87.29;;
46393;Laerm;32099;53.588;10.176;2023-06-14T06:27:34;71.76;35.81;93.79;;
46393;Laerm;32099;53.588;10.176;2023-06-14T06:29:59;54.11;32.11;70.07;;
46393;Laerm;32099;53.588;10.176;2023-06-14T06:32:24;53.68;33.31;69.34;;
46393;Laerm;32099;53.588;10.176;2023-06-14T06:34:50;53.78;32.28;73.95;;
46393;Laerm;32099;53.588;10.176;2023-06-14T06:37:15;51.08;33.83;70.18;;
46393;Laerm;32099;53.588;10.176;2023-06-14T06:39:40;52.18;33.26;67.22;;
46393;Laerm;32099;53.588;10.176;2023-06-14T06:42:06;54.59;33.42;69.58;;
46393;Laerm;32099;53.588;10.176;2023-06-14T06:44:31;48.30;36.17;68.46;;
46393;Laerm;32099;53.588;10.176;2023-06-14T06:46:57;56.16;34.84;75.90;;
46393;Laerm;32099;53.588;10.176;2023-06-14T06:49:22;49.71;33.37;68.64;;
46393;Laerm;32099;53.588;10.176;2023-06-14T06:52:05;49.01;31.95;67.77;;
46393;Laerm;32099;53.588;10.176;2023-06-14T06:54:31;48.28;31.32;62.11;;
46393;Laerm;32099;53.588;10.176;2023-06-14T06:56:57;52.60;32.40;70.47;;
46393;Laerm;32099;53.588;10.176;2023-06-14T06:59:23;54.38;31.53;70.69;;
46393;Laerm;32099;53.588;10.176;2023-06-14T07:01:48;53.98;32.18;70.56;;
46393;Laerm;32099;53.588;10.176;2023-06-14T07:04:13;55.40;32.77;70.83;;
46393;Laerm;32099;53.588;10.176;2023-06-14T07:06:39;46.62;32.11;64.62;;
46393;Laerm;32099;53.588;10.176;2023-06-14T07:09:04;49.26;31.79;69.98;;
46393;Laerm;32099;53.588;10.176;2023-06-14T07:11:33;44.04;31.39;64.92;;
46393;Laerm;32099;53.588;10.176;2023-06-14T07:13:58;36.85;31.34;55.47;;
46393;Laerm;32099;53.588;10.176;2023-06-14T07:16:23;46.34;31.75;65.69;;
46393;Laerm;32099;53.588;10.176;2023-06-14T07:18:49;47.31;31.95;66.62;;
46393;Laerm;32099;53.588;10.176;2023-06-14T07:21:14;40.28;32.09;63.27;;
46393;Laerm;32099;53.588;10.176;2023-06-14T07:23:39;48.47;32.84;67.59;;
46393;Laerm;32099;53.588;10.176;2023-06-14T07:26:04;37.71;31.50;45.61;;
46393;Laerm;32099;53.588;10.176;2023-06-14T07:28:30;46.22;32.38;64.03;;
46393;Laerm;32099;53.588;10.176;2023-06-14T07:30:55;38.98;31.77;53.85;;
46393;Laerm;32099;53.588;10.176;2023-06-14T07:33:20;50.90;32.32;74.63;;
46393;Laerm;32099;53.588;10.176;2023-06-14T07:35:46;48.65;32.94;67.83;;
46393;Laerm;32099;53.588;10.176;2023-06-14T07:38:13;46.34;32.65;62.99;;
46393;Laerm;32099;53.588;10.176;2023-06-14T07:40:38;47.96;31.87;65.00;;
46393;Laerm;32099;53.588;10.176;2023-06-14T07:43:03;36.95;31.10;52.83;;
46393;Laerm;32099;53.588;10.176;2023-06-14T07:45:28;46.94;31.67;73.95;;
46393;Laerm;32099;53.588;10.176;2023-06-14T07:47:54;48.08;35.45;64.01;;
46393;Laerm;32099;53.588;10.176;2023-06-14T07:50:20;38.23;33.01;47.03;;
46393;Laerm;32099;53.588;10.176;2023-06-14T07:52:45;43.88;32.99;60.63;;
46393;Laerm;32099;53.588;10.176;2023-06-14T07:55:11;37.70;31.79;46.78;;
46393;Laerm;32099;53.588;10.176;2023-06-14T07:57:37;47.87;31.42;66.41;;
46393;Laerm;32099;53.588;10.176;2023-06-14T08:00:03;54.90;31.85;71.71;;
46393;Laerm;32099;53.588;10.176;2023-06-14T08:02:31;36.82;31.98;44.92;;
46393;Laerm;32099;53.588;10.176;2023-06-14T08:04:56;36.47;31.32;45.47;;
46393;Laerm;32099;53.588;10.176;2023-06-14T08:07:22;46.37;30.97;64.85;;
46393;Laerm;32099;53.588;10.176;2023-06-14T08:09:47;50.10;34.45;66.32;;
46393;Laerm;32099;53.588;10.176;2023-06-14T08:12:13;49.09;33.05;68.54;;
46393;Laerm;32099;53.588;10.176;2023-06-14T08:14:39;53.61;32.43;70.31;;
46393;Laerm;32099;53.588;10.176;2023-06-14T08:17:05;37.41;32.10;49.95;;
46393;Laerm;32099;53.588;10.176;2023-06-14T08:19:30;48.87;32.23;69.56;;
46393;Laerm;32099;53.588;10.176;2023-06-14T08:21:56;46.62;33.31;66.17;;
46393;Laerm;32099;53.588;10.176;2023-06-14T08:24:21;51.20;33.87;70.57;;
46393;Laerm;32099;53.588;10.176;2023-06-14T08:26:49;47.16;32.28;67.17;;
46393;Laerm;32099;53.588;10.176;2023-06-14T08:29:15;51.01;31.67;66.84;;
46393;Laerm;32099;53.588;10.176;2023-06-14T08:31:40;48.79;31.56;65.28;;
46393;Laerm;32099;53.588;10.176;2023-06-14T08:34:05;46.39;32.90;64.24;;
46393;Laerm;32099;53.588;10.176;2023-06-14T08:36:31;39.07;32.35;54.59;;
46393;Laerm;32099;53.588;10.176;2023-06-14T08:38:56;40.20;32.85;53.17;;
46393;Laerm;32099;53.588;10.176;2023-06-14T08:41:22;50.64;31.79;63.28;;
46393;Laerm;32099;53.588;10.176;2023-06-14T08:43:49;51.49;32.27;75.08;;
46393;Laerm;32099;53.588;10.176;2023-06-14T08:46:17;52.19;31.22;70.92;;
46393;Laerm;32099;53.588;10.176;2023-06-14T08:48:46;52.37;32.18;71.50;;
46393;Laerm;32099;53.588;10.176;2023-06-14T08:51:12;48.46;32.84;67.16;;
46393;Laerm;32099;53.588;10.176;2023-06-14T08:53:40;43.50;34.99;53.71;;
46393;Laerm;32099;53.588;10.176;2023-06-14T08:56:08;37.78;33.43;46.58;;
46393;Laerm;32099;53.588;10.176;2023-06-14T08:58:43;47.83;33.37;66.78;;
46393;Laerm;32099;53.588;10.176;2023-06-14T09:01:10;40.59;33.10;60.11;;
46393;Laerm;32099;53.588;10.176;2023-06-14T09:03:39;48.73;33.05;65.32;;
46393;Laerm;32099;53.588;10.176;2023-06-14T09:06:05;50.19;32.87;66.42;;
46393;Laerm;32099;53.588;10.176;2023-06-14T09:08:34;37.39;31.23;47.68;;
46393;Laerm;32099;53.588;10.176;2023-06-14T09:11:01;45.46;31.80;66.77;;
46393;Laerm;32099;53.588;10.176;2023-06-14T09:13:27;38.14;30.51;52.14;;
46393;Laerm;32099;53.588;10.176;2023-06-14T09:15:52;45.70;31.54;66.07;;
46393;Laerm;32099;53.588;10.176;2023-06-14T09:18:18;37.90;32.74;49.09;;
46393;Laerm;32099;53.588;10.176;2023-06-14T09:20:45;54.00;33.05;73.69;;
46393;Laerm;32099;53.588;10.176;2023-06-14T09:23:12;47.00;32.19;63.62;;
46393;Laerm;32099;53.588;10.176;2023-06-14T09:25:45;48.72;33.88;64.98;;
46393;Laerm;32099;53.588;10.176;2023-06-14T09:28:11;41.13;32.08;59.96;;
46393;Laerm;32099;53.588;10.176;2023-06-14T09:30:37;47.47;32.64;64.58;;
46393;Laerm;32099;53.588;10.176;2023-06-14T09:33:03;43.34;34.14;59.96;;
46393;Laerm;32099;53.588;10.176;2023-06-14T09:35:31;49.42;33.57;68.56;;
46393;Laerm;32099;53.588;10.176;2023-06-14T09:37:56;52.15;32.86;72.15;;
46393;Laerm;32099;53.588;10.176;2023-06-14T09:40:21;51.90;32.83;72.58;;
46393;Laerm;32099;53.588;10.176;2023-06-14T09:42:47;50.20;32.47;70.14;;
46393;Laerm;32099;53.588;10.176;2023-06-14T09:45:13;48.55;33.81;65.31;;
46393;Laerm;32099;53.588;10.176;2023-06-14T09:47:39;45.06;35.48;61.54;;
46393;Laerm;32099;53.588;10.176;2023-06-14T09:50:04;44.04;34.47;61.73;;
46393;Laerm;32099;53.588;10.176;2023-06-14T09:52:30;37.92;32.89;48.40;;
46393;Laerm;32099;53.588;10.176;2023-06-14T09:54:58;50.55;35.38;71.70;;
46393;Laerm;32099;53.588;10.176;2023-06-14T09:57:25;38.63;32.21;51.43;;
46393;Laerm;32099;53.588;10.176;2023-06-14T09:59:56;47.03;31.78;63.91;;
46393;Laerm;32099;53.588;10.176;2023-06-14T10:02:36;51.05;34.79;69.23;;
46393;Laerm;32099;53.588;10.176;2023-06-14T10:07:35;62.56;34.54;86.15;;
46393;Laerm;32099;53.588;10.176;2023-06-14T10:10:01;55.96;33.36;74.79;;
46393;Laerm;32099;53.588;10.176;2023-06-14T10:12:26;51.52;33.95;67.77;;
46393;Laerm;32099;53.588;10.176;2023-06-14T10:14:52;50.07;33.59;68.39;;
46393;Laerm;32099;53.588;10.176;2023-06-14T10:17:43;48.94;33.45;64.25;;
46393;Laerm;32099;53.588;10.176;2023-06-14T10:20:33;49.25;32.59;64.51;;
46393;Laerm;32099;53.588;10.176;2023-06-14T10:23:08;46.17;32.84;60.90;;
46393;Laerm;32099;53.588;10.176;2023-06-14T10:25:35;49.63;32.32;76.18;;
46393;Laerm;32099;53.588;10.176;2023-06-14T10:28:18;49.55;32.78;67.33;;
46393;Laerm;32099;53.588;10.176;2023-06-14T10:31:05;49.31;31.62;65.10;;
46393;Laerm;32099;53.588;10.176;2023-06-14T10:33:32;52.34;33.24;73.57;;
46393;Laerm;32099;53.588;10.176;2023-06-14T10:36:07;38.42;32.83;51.92;;
46393;Laerm;32099;53.588;10.176;2023-06-14T10:38:33;53.02;34.85;68.55;;
46393;Laerm;32099;53.588;10.176;2023-06-14T10:40:59;44.43;31.67;70.74;;
46393;Laerm;32099;53.588;10.176;2023-06-14T10:43:25;48.92;31.56;65.07;;
46393;Laerm;32099;53.588;10.176;2023-06-14T10:48:41;49.96;32.66;68.76;;
46393;Laerm;32099;53.588;10.176;2023-06-14T10:51:15;52.04;32.19;68.98;;
46393;Laerm;32099;53.588;10.176;2023-06-14T10:53:42;47.44;32.48;66.43;;
46393;Laerm;32099;53.588;10.176;2023-06-14T10:56:08;49.94;32.60;72.05;;
46393;Laerm;32099;53.588;10.176;2023-06-14T10:58:33;44.84;33.23;59.82;;
46393;Laerm;32099;53.588;10.176;2023-06-14T11:00:59;37.28;31.98;54.85;;
46393;Laerm;32099;53.588;10.176;2023-06-14T11:03:42;46.04;31.90;63.35;;
46393;Laerm;32099;53.588;10.176;2023-06-14T11:06:14;44.89;32.66;61.09;;
46393;Laerm;32099;53.588;10.176;2023-06-14T11:09:03;54.12;31.49;68.13;;
46393;Laerm;32099;53.588;10.176;2023-06-14T11:11:35;50.16;32.59;64.40;;
46393;Laerm;32099;53.588;10.176;2023-06-14T11:14:01;45.05;33.74;63.63;;
46393;Laerm;32099;53.588;10.176;2023-06-14T11:16:27;48.42;33.44;64.93;;
46393;Laerm;32099;53.588;10.176;2023-06-14T11:18:53;46.60;32.41;64.88;;
46393;Laerm;32099;53.588;10.176;2023-06-14T11:21:19;37.46;32.26;54.05;;
46393;Laerm;32099;53.588;10.176;2023-06-14T11:23:51;40.96;32.93;50.97;;
46393;Laerm;32099;53.588;10.176;2023-06-14T11:26:27;47.20;32.03;64.27;;
46393;Laerm;32099;53.588;10.176;2023-06-14T11:28:55;51.66;31.88;71.67;;
46393;Laerm;32099;53.588;10.176;2023-06-14T11:31:21;45.97;32.54;65.50;;
46393;Laerm;32099;53.588;10.176;2023-06-14T11:33:49;51.83;31.54;67.38;;
46393;Laerm;32099;53.588;10.176;2023-06-14T11:36:15;46.01;31.10;62.87;;
46393;Laerm;32099;53.588;10.176;2023-06-14T11:38:40;38.02;30.98;50.66;;
46393;Laerm;32099;53.588;10.176;2023-06-14T11:41:06;46.43;31.99;65.17;;
46393;Laerm;32099;53.588;10.176;2023-06-14T11:43:31;47.71;32.73;63.87;;
46393;Laerm;32099;53.588;10.176;2023-06-14T11:45:58;49.86;33.07;65.88;;
46393;Laerm;32099;53.588;10.176;2023-06-14T11:48:35;48.23;34.10;65.77;;
46393;Laerm;32099;53.588;10.176;2023-06-14T11:51:01;43.80;33.14;53.18;;
46393;Laerm;32099;53.588;10.176;2023-06-14T11:53:26;44.77;34.30;67.46;;
46393;Laerm;32099;53.588;10.176;2023-06-14T11:55:51;45.58;32.48;65.15;;
46393;Laerm;32099;53.588;10.176;2023-06-14T11:58:18;50.49;35.35;65.02;;
46393;Laerm;32099;53.588;10.176;2023-06-14T12:00:43;44.10;33.58;62.30;;
46393;Laerm;32099;53.588;10.176;2023-06-14T12:03:09;50.05;33.72;67.55;;
46393;Laerm;32099;53.588;10.176;2023-06-14T12:05:34;48.48;33.72;64.27;;
46393;Laerm;32099;53.588;10.176;2023-06-14T12:08:01;51.79;32.80;73.86;;
46393;Laerm;32099;53.588;10.176;2023-06-14T12:10:28;53.24;32.70;70.76;;
46393;Laerm;32099;53.588;10.176;2023-06-14T12:12:57;48.99;32.47;68.53;;
46393;Laerm;32099;53.588;10.176;2023-06-14T12:15:23;54.49;31.40;71.44;;
46393;Laerm;32099;53.588;10.176;2023-06-14T12:17:49;49.98;32.42;66.22;;
46393;Laerm;32099;53.588;10.176;2023-06-14T12:20:14;50.38;33.96;68.75;;
46393;Laerm;32099;53.588;10.176;2023-06-14T12:25:27;40.58;31.47;64.11;;
46393;Laerm;32099;53.588;10.176;2023-06-14T12:27:54;51.90;34.25;75.14;;
46393;Laerm;32099;53.588;10.176;2023-06-14T12:30:20;45.06;32.32;63.14;;
46393;Laerm;32099;53.588;10.176;2023-06-14T12:32:45;61.53;32.32;76.92;;
46393;Laerm;32099;53.588;10.176;2023-06-14T12:35:10;54.08;37.07;68.48;;
46393;Laerm;32099;53.588;10.176;2023-06-14T12:37:35;47.67;34.94;63.54;;
46393;Laerm;32099;53.588;10.176;2023-06-14T12:40:01;64.47;34.63;81.02;;
46393;Laerm;32099;53.588;10.176;2023-06-14T12:42:27;49.79;30.84;69.02;;
46393;Laerm;32099;53.588;10.176;2023-06-14T12:44:52;54.91;31.37;82.03;;
46393;Laerm;32099;53.588;10.176;2023-06-14T12:47:17;43.15;31.31;64.95;;
46393;Laerm;32099;53.588;10.176;2023-06-14T12:49:42;43.14;31.24;66.71;;
46393;Laerm;32099;53.588;10.176;2023-06-14T12:52:08;49.39;32.71;73.15;;
46393;Laerm;32099;53.588;10.176;2023-06-14T12:54:34;52.79;36.39;72.22;;
46393;Laerm;32099;53.588;10.176;2023-06-14T12:56:59;41.15;31.40;53.89;;
46393;Laerm;32099;53.588;10.176;2023-06-14T12:59:24;48.27;31.88;66.12;;
46393;Laerm;32099;53.588;10.176;2023-06-14T13:01:50;47.29;32.01;64.58;;
46393;Laerm;32099;53.588;10.176;2023-06-14T13:04:15;36.00;30.69;50.25;;
46393;Laerm;32099;53.588;10.176;2023-06-14T13:06:41;45.89;32.23;61.53;;
46393;Laerm;32099;53.588;10.176;2023-06-14T13:09:06;44.53;28.89;62.80;;
46393;Laerm;32099;53.588;10.176;2023-06-14T13:11:31;54.99;31.65;84.54;;
46393;Laerm;32099;53.588;10.176;2023-06-14T13:13:57;49.48;32.96;64.53;;
46393;Laerm;32099;53.588;10.176;2023-06-14T13:16:22;48.84;34.15;64.15;;
46393;Laerm;32099;53.588;10.176;2023-06-14T13:18:48;43.38;32.44;58.07;;
46393;Laerm;32099;53.588;10.176;2023-06-14T13:21:13;43.83;31.00;63.49;;
46393;Laerm;32099;53.588;10.176;2023-06-14T13:23:38;53.35;32.30;72.84;;
46393;Laerm;32099;53.588;10.176;2023-06-14T13:26:04;45.50;32.33;62.89;;
46393;Laerm;32099;53.588;10.176;2023-06-14T13:28:29;44.49;31.21;62.50;;
46393;Laerm;32099;53.588;10.176;2023-06-14T13:30:56;48.78;31.79;66.93;;
46393;Laerm;32099;53.588;10.176;2023-06-14T13:33:21;51.53;32.20;66.04;;
46393;Laerm;32099;53.588;10.176;2023-06-14T13:35:47;46.77;29.89;63.09;;
46393;Laerm;32099;53.588;10.176;2023-06-14T13:38:13;44.22;30.60;63.00;;
46393;Laerm;32099;53.588;10.176;2023-06-14T13:40:39;49.07;31.98;65.34;;
46393;Laerm;32099;53.588;10.176;2023-06-14T13:43:05;48.88;32.55;65.71;;